createdAt,value
2022-10-18T00:00:26.131Z,16.73
2022-10-18T00:02:53.119Z,14.10
2022-10-18T00:05:19.955Z,15.60
2022-10-18T00:07:46.934Z,18.40
2022-10-18T00:10:13.953Z,15.67
2022-10-18T00:12:40.852Z,17.97
2022-10-18T00:15:08.732Z,18.93
2022-10-18T00:17:37.529Z,20.30
2022-10-18T00:20:06.012Z,19.67
2022-10-18T00:22:35.196Z,16.50
2022-10-18T00:25:02.188Z,21.60
2022-10-18T00:27:29.965Z,26.53
2022-10-18T00:29:57.070Z,23.43
2022-10-18T00:32:24.293Z,17.10
2022-10-18T00:34:51.174Z,20.83
2022-10-18T00:37:18.893Z,21.40
2022-10-18T00:39:45.761Z,14.90
2022-10-18T00:42:18.185Z,21.20
2022-10-18T00:45:12.683Z,16.27
2022-10-18T00:47:39.875Z,27.43
2022-10-18T00:50:08.743Z,12.47
2022-10-18T00:52:43.599Z,13.30
2022-10-18T00:55:11.393Z,15.43
2022-10-18T00:57:40.751Z,11.23
2022-10-18T01:00:10.020Z,16.27
2022-10-18T01:02:38.868Z,13.63
2022-10-18T01:05:06.658Z,20.60
2022-10-18T01:08:07.459Z,17.63
2022-10-18T01:10:57.763Z,12.47
2022-10-18T01:14:03.039Z,18.00
2022-10-18T01:16:53.964Z,11.13
2022-10-18T01:19:51.973Z,14.90
2022-10-18T01:22:31.840Z,11.20
2022-10-18T01:25:35.786Z,11.63
2022-10-18T01:28:37.124Z,11.50
2022-10-18T01:31:15.850Z,19.97
2022-10-18T01:33:56.595Z,11.30
2022-10-18T01:36:34.212Z,12.20
2022-10-18T01:39:06.441Z,15.30
2022-10-18T01:41:37.727Z,16.43
2022-10-18T01:44:07.723Z,14.00
2022-10-18T01:46:35.788Z,12.60
2022-10-18T01:49:02.994Z,14.60
2022-10-18T01:51:31.825Z,12.40
2022-10-18T01:53:59.342Z,11.23
2022-10-18T01:57:03.771Z,11.23
2022-10-18T01:59:58.921Z,14.20
2022-10-18T02:02:42.166Z,11.40
2022-10-18T02:05:47.792Z,14.80
2022-10-18T02:09:00.655Z,10.70
2022-10-18T02:11:30.543Z,8.77
2022-10-18T02:14:10.676Z,17.70
2022-10-18T02:16:48.489Z,9.00
2022-10-18T02:19:38.455Z,9.20
2022-10-18T02:22:07.690Z,8.93
2022-10-18T02:24:38.903Z,15.50
2022-10-18T02:27:06.090Z,9.40
2022-10-18T02:29:33.650Z,13.70
2022-10-18T02:32:10.400Z,10.00
2022-10-18T02:34:46.626Z,9.77
2022-10-18T02:37:15.482Z,8.23
2022-10-18T02:39:50.967Z,16.10
2022-10-18T02:42:17.915Z,10.17
2022-10-18T02:44:44.869Z,10.90
2022-10-18T02:47:12.861Z,11.90
2022-10-18T02:49:39.963Z,15.17
2022-10-18T02:52:07.083Z,14.57
2022-10-18T02:54:33.925Z,8.90
2022-10-18T02:57:00.859Z,8.83
2022-10-18T02:59:27.726Z,8.90
2022-10-18T03:01:54.601Z,10.77
2022-10-18T03:04:21.544Z,9.63
2022-10-18T03:06:48.464Z,9.60
2022-10-18T03:09:15.447Z,11.10
2022-10-18T03:11:42.363Z,9.47
2022-10-18T03:14:09.202Z,8.30
2022-10-18T03:16:36.124Z,14.50
2022-10-18T03:19:03.235Z,10.37
2022-10-18T03:21:30.143Z,15.60
2022-10-18T03:23:58.705Z,10.37
2022-10-18T03:26:25.856Z,12.93
2022-10-18T03:28:52.872Z,10.53
2022-10-18T03:31:20.124Z,12.43
2022-10-18T03:33:47.386Z,12.13
2022-10-18T03:36:14.734Z,13.37
2022-10-18T03:38:42.286Z,12.90
2022-10-18T03:41:09.154Z,12.13
2022-10-18T03:43:36.108Z,10.97
2022-10-18T03:46:03.038Z,10.60
2022-10-18T03:48:30.069Z,12.90
2022-10-18T03:50:57.011Z,19.43
2022-10-18T03:53:23.872Z,16.33
2022-10-18T03:55:52.645Z,12.70
2022-10-18T03:58:19.747Z,12.90
2022-10-18T04:00:50.708Z,12.03
2022-10-18T04:03:17.781Z,12.10
2022-10-18T04:05:46.442Z,18.70
2022-10-18T04:08:14.026Z,15.50
2022-10-18T04:10:41.812Z,14.07
2022-10-18T04:13:09.011Z,12.17
2022-10-18T04:15:36.008Z,15.40
2022-10-18T04:18:02.991Z,15.70
2022-10-18T04:20:30.058Z,12.67
2022-10-18T04:22:57.779Z,14.03
2022-10-18T04:25:25.345Z,13.80
2022-10-18T04:27:52.367Z,15.13
2022-10-18T04:30:19.264Z,13.50
2022-10-18T04:32:46.269Z,14.67
2022-10-18T04:35:13.127Z,20.17
2022-10-18T04:37:40.305Z,18.70
2022-10-18T04:40:08.221Z,14.90
2022-10-18T04:42:35.142Z,15.27
2022-10-18T04:45:02.073Z,17.13
2022-10-18T04:47:29.198Z,12.40
2022-10-18T04:49:56.226Z,14.23
2022-10-18T04:52:23.070Z,14.03
2022-10-18T04:54:49.982Z,20.23
2022-10-18T04:57:16.985Z,17.83
2022-10-18T04:59:43.916Z,15.50
2022-10-18T05:02:10.973Z,14.70
2022-10-18T05:04:37.921Z,21.53
2022-10-18T05:07:07.092Z,24.63
2022-10-18T05:09:33.991Z,22.40
2022-10-18T05:12:00.920Z,20.17
2022-10-18T05:14:27.904Z,17.30
2022-10-18T05:16:54.802Z,17.50
2022-10-18T05:19:21.875Z,15.53
2022-10-18T05:21:49.273Z,16.80
2022-10-18T05:24:16.152Z,17.57
2022-10-18T05:26:43.054Z,16.83
2022-10-18T05:29:10.031Z,17.20
2022-10-18T05:31:36.991Z,16.40
2022-10-18T05:34:03.949Z,15.60
2022-10-18T05:36:30.855Z,17.30
2022-10-18T05:39:00.959Z,20.83
2022-10-18T05:41:31.364Z,16.03
2022-10-18T05:43:58.395Z,19.27
2022-10-18T05:46:25.640Z,15.60
2022-10-18T05:48:52.581Z,26.60
2022-10-18T05:51:19.905Z,19.53
2022-10-18T05:53:46.951Z,34.37
2022-10-18T05:56:14.571Z,21.00
2022-10-18T05:58:42.620Z,21.10
2022-10-18T06:01:10.480Z,18.43
2022-10-18T06:03:37.349Z,19.53
2022-10-18T06:06:07.333Z,19.43
2022-10-18T06:08:34.304Z,19.33
2022-10-18T06:11:06.263Z,15.57
2022-10-18T06:13:33.916Z,22.10
2022-10-18T06:16:01.006Z,27.60
2022-10-18T06:18:28.044Z,24.90
2022-10-18T06:20:59.098Z,24.20
2022-10-18T06:23:28.064Z,24.00
2022-10-18T06:25:59.365Z,24.30
2022-10-18T06:28:26.877Z,20.57
2022-10-18T06:30:53.801Z,19.43
2022-10-18T06:33:20.753Z,22.57
2022-10-18T06:35:58.993Z,23.23
2022-10-18T06:38:26.568Z,30.60
2022-10-18T06:40:54.620Z,23.10
2022-10-18T06:43:22.470Z,23.60
2022-10-18T06:45:50.129Z,21.73
2022-10-18T06:51:01.745Z,32.00
2022-10-18T06:53:32.376Z,22.07
2022-10-18T06:56:01.755Z,19.10
2022-10-18T06:58:29.560Z,30.00
2022-10-18T07:00:56.994Z,26.57
2022-10-18T07:03:24.053Z,32.47
2022-10-18T07:05:51.370Z,26.93
2022-10-18T07:08:18.635Z,25.90
2022-10-18T07:10:54.912Z,23.83
2022-10-18T07:13:38.076Z,24.20
2022-10-18T07:16:14.095Z,25.00
2022-10-18T07:18:47.431Z,33.83
2022-10-18T07:21:17.003Z,36.10
2022-10-18T07:23:46.390Z,29.50
2022-10-18T07:26:16.010Z,37.97
2022-10-18T07:28:44.791Z,29.43
2022-10-18T07:31:12.681Z,35.67
2022-10-18T07:33:40.127Z,27.67
2022-10-18T07:36:09.840Z,25.87
2022-10-18T07:38:37.183Z,37.27
2022-10-18T07:41:06.898Z,28.83
2022-10-18T07:43:35.053Z,40.97
2022-10-18T07:46:04.065Z,35.13
2022-10-18T07:48:31.191Z,33.30
2022-10-18T07:50:59.994Z,48.43
2022-10-18T07:53:27.701Z,34.27
2022-10-18T07:56:09.494Z,48.60
2022-10-18T07:58:36.973Z,37.80
2022-10-18T08:01:06.123Z,51.77
2022-10-18T08:03:33.707Z,51.60
2022-10-18T08:06:00.690Z,39.50
2022-10-18T08:08:28.464Z,42.80
2022-10-18T08:10:55.421Z,42.93
2022-10-18T08:13:22.592Z,43.63
2022-10-18T08:15:49.506Z,44.70
2022-10-18T08:18:16.578Z,46.33
2022-10-18T08:20:46.847Z,50.00
2022-10-18T08:23:13.711Z,51.10
2022-10-18T08:25:40.562Z,72.10
2022-10-18T08:28:07.699Z,59.33
2022-10-18T08:30:35.926Z,60.37
2022-10-18T08:33:03.672Z,62.07
2022-10-18T08:35:31.753Z,57.00
2022-10-18T08:37:59.534Z,59.07
2022-10-18T08:40:27.792Z,56.27
2022-10-18T08:46:03.605Z,51.23
2022-10-18T08:48:40.716Z,51.70
2022-10-18T08:51:17.926Z,58.40
2022-10-18T08:53:56.981Z,50.73
2022-10-18T08:56:24.913Z,59.63
2022-10-18T08:58:52.200Z,60.87
2022-10-18T09:02:06.750Z,56.10
2022-10-18T09:04:55.413Z,59.20
2022-10-18T09:08:09.539Z,51.27
2022-10-18T09:11:11.065Z,55.77
2022-10-18T09:14:05.737Z,57.23
2022-10-18T09:16:57.199Z,53.90
2022-10-18T09:19:39.175Z,59.67
2022-10-18T09:22:18.162Z,56.70
2022-10-18T09:25:26.644Z,53.13
2022-10-18T09:28:10.090Z,49.80
2022-10-18T09:31:05.389Z,59.07
2022-10-18T09:33:56.592Z,51.63
2022-10-18T09:36:26.941Z,53.27
2022-10-18T09:39:00.432Z,49.67
2022-10-18T09:42:05.112Z,46.20
2022-10-18T09:44:59.962Z,44.00
2022-10-18T09:47:37.562Z,50.47
2022-10-18T09:50:43.431Z,47.13
2022-10-18T09:53:17.974Z,37.10
2022-10-18T09:56:14.626Z,46.50
2022-10-18T09:58:47.350Z,39.93
2022-10-18T10:01:21.202Z,46.03
2022-10-18T10:03:48.133Z,44.50
2022-10-18T10:06:43.138Z,39.87
2022-10-18T10:09:18.075Z,37.10
2022-10-18T10:11:47.446Z,29.60
2022-10-18T10:14:23.660Z,38.47
2022-10-18T10:17:06.968Z,36.20
2022-10-18T10:19:54.692Z,32.33
2022-10-18T10:22:30.651Z,34.10
2022-10-18T10:24:57.893Z,27.83
2022-10-18T10:27:53.433Z,37.47
2022-10-18T10:30:25.571Z,32.07
2022-10-18T10:32:54.052Z,38.50
2022-10-18T10:35:57.924Z,32.43
2022-10-18T10:38:26.931Z,34.13
2022-10-18T10:40:54.361Z,35.83
2022-10-18T10:43:40.287Z,34.00
2022-10-18T10:46:18.960Z,36.60
2022-10-18T10:49:39.150Z,36.80
2022-10-18T10:52:09.410Z,38.77
2022-10-18T10:54:52.089Z,39.50
2022-10-18T10:57:29.651Z,34.17
2022-10-18T10:59:59.884Z,33.97
2022-10-18T11:02:32.329Z,32.10
2022-10-18T11:05:29.365Z,38.70
2022-10-18T11:08:02.410Z,43.07
2022-10-18T11:10:34.869Z,33.70
2022-10-18T11:13:43.320Z,29.13
2022-10-18T11:16:39.775Z,30.03
2022-10-18T11:19:19.436Z,29.30
2022-10-18T11:21:46.936Z,41.23
2022-10-18T11:24:16.631Z,26.27
2022-10-18T11:27:12.316Z,35.07
2022-10-18T11:30:02.065Z,27.70
2022-10-18T11:33:08.148Z,27.30
2022-10-18T11:36:08.032Z,26.33
2022-10-18T11:38:55.117Z,30.13
2022-10-18T11:41:31.808Z,26.20
2022-10-18T11:44:03.505Z,21.20
2022-10-18T11:47:11.944Z,21.00
2022-10-18T11:50:08.901Z,23.43
2022-10-18T11:52:55.384Z,29.83
2022-10-18T11:56:17.064Z,24.97
2022-10-18T12:12:28.797Z,20.37
2022-10-18T12:15:03.598Z,18.67
2022-10-18T12:17:47.476Z,26.33
2022-10-18T12:20:40.457Z,22.87
2022-10-18T12:26:18.526Z,14.03
2022-10-18T12:29:06.417Z,14.93
2022-10-18T12:31:43.563Z,12.73
2022-10-18T12:40:58.209Z,11.57
2022-10-18T12:43:27.359Z,14.53
2022-10-18T12:45:56.203Z,11.40
2022-10-18T12:48:41.018Z,15.10
2022-10-18T12:51:17.068Z,10.00
2022-10-18T12:53:55.448Z,16.83
2022-10-18T12:56:38.962Z,16.77
2022-10-18T12:59:44.288Z,12.10
2022-10-18T13:02:23.692Z,15.00
2022-10-18T13:04:50.750Z,13.83
2022-10-18T13:07:43.524Z,16.20
2022-10-18T13:10:35.033Z,12.33
2022-10-18T13:13:44.015Z,15.80
2022-10-18T13:16:46.769Z,17.47
2022-10-18T13:20:24.001Z,13.50
2022-10-18T13:23:47.243Z,18.03
2022-10-18T13:26:40.172Z,23.57
2022-10-18T13:29:41.107Z,23.77
2022-10-18T13:32:34.365Z,19.23
2022-10-18T13:35:01.618Z,11.47
2022-10-18T13:37:30.771Z,6.60
2022-10-18T13:40:23.882Z,14.53
2022-10-18T13:42:50.887Z,8.50
2022-10-18T13:45:46.806Z,12.80
2022-10-18T13:48:53.014Z,8.57
2022-10-18T13:52:05.260Z,7.10
2022-10-18T13:54:58.677Z,4.07
2022-10-18T13:58:10.284Z,11.63
2022-10-18T14:01:18.306Z,5.80
2022-10-18T14:04:22.407Z,6.80
2022-10-18T14:06:50.346Z,7.70
2022-10-18T14:09:40.274Z,8.83
2022-10-18T14:12:41.963Z,5.87
2022-10-18T14:15:17.973Z,7.67
2022-10-18T14:18:00.389Z,6.37
2022-10-18T14:20:48.944Z,7.67
2022-10-18T14:23:33.246Z,6.47
2022-10-18T14:26:18.601Z,6.40
2022-10-18T14:29:01.668Z,8.47
2022-10-18T14:31:28.904Z,6.87
2022-10-18T14:33:58.875Z,3.73
2022-10-18T14:36:29.939Z,4.73
2022-10-18T14:39:05.804Z,10.53
2022-10-18T14:41:38.628Z,4.93
2022-10-18T14:44:22.512Z,10.80
2022-10-18T14:46:59.513Z,4.70
2022-10-18T14:49:26.544Z,6.23
2022-10-18T14:51:58.940Z,3.93
2022-10-18T14:54:32.934Z,7.47
2022-10-18T14:57:01.401Z,12.50
2022-10-18T14:59:32.623Z,5.00
2022-10-18T15:02:10.264Z,2.90
2022-10-18T15:04:37.256Z,3.37
2022-10-18T15:07:15.148Z,5.47
2022-10-18T15:09:43.525Z,10.63
2022-10-18T15:12:14.902Z,5.63
2022-10-18T15:14:43.734Z,6.57
2022-10-18T15:17:20.310Z,8.87
2022-10-18T15:20:06.233Z,3.97
2022-10-18T15:22:34.173Z,5.57
2022-10-18T15:25:34.582Z,6.20
2022-10-18T15:28:01.932Z,9.33
2022-10-18T15:30:41.161Z,5.37
2022-10-18T15:33:11.468Z,12.83
2022-10-18T15:35:39.613Z,4.10
2022-10-18T15:38:45.113Z,12.67
2022-10-18T15:41:46.096Z,3.10
2022-10-18T15:44:34.722Z,4.37
2022-10-18T15:47:23.036Z,11.97
2022-10-18T15:49:56.618Z,6.47
2022-10-18T15:52:40.908Z,8.53
2022-10-18T15:55:55.757Z,8.33
2022-10-18T15:58:36.727Z,6.70
2022-10-18T16:01:04.575Z,6.77
2022-10-18T16:03:35.722Z,12.67
2022-10-18T16:06:08.323Z,2.03
2022-10-18T16:08:42.494Z,4.77
2022-10-18T16:11:21.513Z,5.00
2022-10-18T16:13:51.070Z,8.67
2022-10-18T16:16:26.840Z,4.50
2022-10-18T16:18:54.762Z,9.73
2022-10-18T16:21:30.110Z,4.80
2022-10-18T16:23:57.458Z,3.87
2022-10-18T16:26:25.768Z,6.50
2022-10-18T16:28:54.212Z,4.07
2022-10-18T16:31:24.369Z,14.80
2022-10-18T16:33:52.547Z,7.70
2022-10-18T16:36:25.170Z,19.57
2022-10-18T16:38:52.535Z,7.53
2022-10-18T16:41:19.430Z,8.83
2022-10-18T16:43:47.864Z,14.63
2022-10-18T16:46:27.900Z,4.77
2022-10-18T16:48:56.035Z,5.83
2022-10-18T16:51:23.342Z,7.63
2022-10-18T16:53:52.644Z,8.00
2022-10-18T16:56:27.148Z,22.90
2022-10-18T16:58:54.352Z,4.70
2022-10-18T17:01:23.121Z,7.43
2022-10-18T17:03:52.401Z,10.73
2022-10-18T17:06:32.382Z,6.43
2022-10-18T17:09:00.122Z,8.97
2022-10-18T17:11:28.517Z,4.80
2022-10-18T17:13:55.897Z,12.40
2022-10-18T17:16:33.163Z,13.17
2022-10-18T17:19:02.936Z,9.50
2022-10-18T17:21:30.603Z,8.23
2022-10-18T17:24:00.634Z,9.40
2022-10-18T17:26:29.480Z,13.73
2022-10-18T17:29:01.098Z,13.80
2022-10-18T17:31:29.565Z,11.00
2022-10-18T17:33:58.566Z,5.70
2022-10-18T17:36:30.651Z,8.63
2022-10-18T17:39:00.910Z,26.00
2022-10-18T17:41:28.481Z,12.53
2022-10-18T17:43:55.548Z,9.83
2022-10-18T17:46:23.759Z,11.77
2022-10-18T17:48:50.858Z,14.73
2022-10-18T17:51:18.074Z,14.17
2022-10-18T17:53:45.394Z,15.43
2022-10-18T17:56:13.243Z,25.30
2022-10-18T17:58:40.281Z,22.43
2022-10-18T18:01:18.453Z,11.33
2022-10-18T18:03:47.815Z,13.40
2022-10-18T18:06:23.299Z,14.00
2022-10-18T18:08:50.832Z,6.87
2022-10-18T18:11:18.411Z,8.20
2022-10-18T18:13:45.396Z,5.77
2022-10-18T18:16:24.401Z,20.27
2022-10-18T18:18:54.474Z,13.50
2022-10-18T18:21:22.331Z,10.40
2022-10-18T18:23:50.060Z,8.20
2022-10-18T18:26:18.179Z,8.07
2022-10-18T18:28:45.592Z,12.20
2022-10-18T18:31:15.504Z,15.63
2022-10-18T18:33:42.920Z,7.90
2022-10-18T18:36:10.474Z,13.57
2022-10-18T18:38:39.818Z,8.03
2022-10-18T18:41:18.604Z,6.03
2022-10-18T18:44:11.828Z,16.33
2022-10-18T18:46:38.908Z,20.27
2022-10-18T18:49:07.151Z,5.77
2022-10-18T18:51:37.446Z,11.13
2022-10-18T18:54:05.181Z,15.20
2022-10-18T18:56:32.328Z,23.43
2022-10-18T18:58:59.640Z,10.30
2022-10-18T19:01:30.545Z,16.17
2022-10-18T19:03:58.519Z,17.03
2022-10-18T19:06:44.779Z,7.60
2022-10-18T19:09:22.149Z,11.77
2022-10-18T19:11:52.427Z,14.93
2022-10-18T19:14:19.768Z,17.60
2022-10-18T19:16:53.416Z,17.03
2022-10-18T19:19:23.041Z,9.33
2022-10-18T19:21:58.326Z,10.27
2022-10-18T19:24:26.895Z,8.57
2022-10-18T19:27:00.100Z,11.43
2022-10-18T19:29:32.516Z,29.20
2022-10-18T19:32:01.515Z,10.17
2022-10-18T19:34:30.030Z,14.20
2022-10-18T19:36:57.397Z,14.53
2022-10-18T19:39:32.824Z,11.77
2022-10-18T19:42:03.512Z,12.00
2022-10-18T19:44:32.418Z,20.47
2022-10-18T19:47:02.532Z,10.33
2022-10-18T19:49:29.490Z,17.00
2022-10-18T19:51:56.835Z,10.10
2022-10-18T19:54:25.645Z,12.07
2022-10-18T19:56:52.761Z,8.80
2022-10-18T19:59:22.241Z,7.70
2022-10-18T20:01:51.793Z,10.20
2022-10-18T20:04:18.894Z,9.70
2022-10-18T20:06:46.230Z,10.00
2022-10-18T20:09:17.759Z,8.37
2022-10-18T20:11:47.716Z,14.63
2022-10-18T20:14:14.691Z,15.03
2022-10-18T20:16:41.496Z,17.30
2022-10-18T20:19:09.775Z,10.27
2022-10-18T20:21:36.903Z,12.37
2022-10-18T20:24:05.822Z,19.57
2022-10-18T20:26:33.530Z,13.50
2022-10-18T20:29:00.756Z,8.80
2022-10-18T20:31:30.590Z,10.37
2022-10-18T20:34:00.206Z,10.77
2022-10-18T20:36:29.136Z,10.37
2022-10-18T20:38:56.530Z,21.63
2022-10-18T20:41:29.925Z,12.70
2022-10-18T20:44:02.232Z,15.20
2022-10-18T20:46:35.932Z,19.53
2022-10-18T20:49:04.656Z,18.07
2022-10-18T20:51:33.791Z,8.90
2022-10-18T20:56:34.101Z,8.37
2022-10-18T20:59:01.840Z,17.13
2022-10-18T21:01:30.977Z,12.00
2022-10-18T21:04:00.817Z,10.60
2022-10-18T21:06:35.325Z,10.83
2022-10-18T21:09:08.044Z,14.33
2022-10-18T21:11:37.628Z,14.90
2022-10-18T21:14:06.250Z,15.70
2022-10-18T21:16:35.429Z,16.77
2022-10-18T21:19:18.082Z,22.33
2022-10-18T21:21:47.546Z,29.70
2022-10-18T21:24:14.578Z,26.90
2022-10-18T21:26:41.520Z,28.43
2022-10-18T21:29:08.717Z,35.10
2022-10-18T21:31:39.328Z,23.40
2022-10-18T21:34:13.026Z,20.13
2022-10-18T21:36:40.903Z,16.10
2022-10-18T21:39:11.482Z,24.03
2022-10-18T21:41:38.981Z,30.73
2022-10-18T21:44:09.962Z,21.47
2022-10-18T21:46:39.581Z,13.77
2022-10-18T21:49:07.403Z,15.37
2022-10-18T21:51:34.795Z,21.27
2022-10-18T21:54:02.010Z,22.53
2022-10-18T21:56:34.279Z,13.63
2022-10-18T21:59:01.979Z,18.53
2022-10-18T22:01:39.542Z,19.83
2022-10-18T22:04:16.896Z,10.43
2022-10-18T22:06:43.709Z,20.47
2022-10-18T22:09:10.685Z,16.60
2022-10-18T22:11:44.537Z,20.83
2022-10-18T22:14:11.616Z,18.73
2022-10-18T22:16:38.879Z,16.33
2022-10-18T22:19:07.017Z,10.90
2022-10-18T22:21:34.344Z,23.20
2022-10-18T22:24:06.314Z,18.00
2022-10-18T22:26:42.417Z,15.50
2022-10-18T22:29:17.300Z,16.30
2022-10-18T22:31:50.362Z,17.53
2022-10-18T22:34:19.959Z,12.67
2022-10-18T22:36:47.107Z,16.93
2022-10-18T22:39:15.367Z,15.80
2022-10-18T22:41:43.160Z,29.93
2022-10-18T22:44:12.854Z,29.87
2022-10-18T22:46:40.324Z,20.47
2022-10-18T22:49:07.508Z,15.47
2022-10-18T22:54:03.070Z,19.30
2022-10-18T22:56:29.934Z,18.20
2022-10-18T22:58:56.802Z,15.53
2022-10-18T23:01:24.532Z,17.80
2022-10-18T23:03:55.999Z,13.20
2022-10-18T23:06:34.012Z,22.23
2022-10-18T23:09:04.861Z,23.50
2022-10-18T23:11:32.870Z,12.63
2022-10-18T23:13:59.773Z,24.00
2022-10-18T23:16:26.697Z,10.97
2022-10-18T23:18:55.411Z,17.00
2022-10-18T23:21:24.516Z,18.17
2022-10-18T23:23:52.509Z,12.67
2022-10-18T23:26:24.519Z,14.80
2022-10-18T23:28:53.027Z,16.03
2022-10-18T23:31:33.009Z,14.43
2022-10-18T23:34:05.183Z,17.30
2022-10-18T23:36:33.484Z,16.50
2022-10-18T23:39:00.662Z,15.37
2022-10-18T23:41:27.824Z,24.40
2022-10-18T23:43:55.120Z,26.73
2022-10-18T23:46:22.094Z,14.77
2022-10-18T23:48:49.155Z,16.30
2022-10-18T23:51:16.835Z,25.40
2022-10-18T23:53:44.339Z,19.60
2022-10-18T23:56:13.898Z,18.30
2022-10-18T23:58:41.128Z,15.00
